sensor_id;sensor_type;location;lat;lon;timestamp;pressure;altitude;pressure_sealevel;temperature;humidity
20628;BME280;10473;42.734;24.258;2023-05-25T00:00:45;91891.97;;;14.74;72.78
20628;BME280;10473;42.734;24.258;2023-05-25T00:03:13;91891.97;;;14.74;72.50
20628;BME280;10473;42.734;24.258;2023-05-25T00:05:42;91889.69;;;14.73;72.80
20628;BME280;10473;42.734;24.258;2023-05-25T00:08:10;91891.97;;;14.74;72.64
20628;BME280;10473;42.734;24.258;2023-05-25T00:10:38;91894.63;;;14.74;72.63
20628;BME280;10473;42.734;24.258;2023-05-25T00:13:05;91887.00;;;14.80;72.69
20628;BME280;10473;42.734;24.258;2023-05-25T00:15:35;91892.81;;;14.57;73.25
20628;BME280;10473;42.734;24.258;2023-05-25T00:18:03;91884.75;;;14.68;73.26
20628;BME280;10473;42.734;24.258;2023-05-25T00:20:31;91882.47;;;14.70;73.16
20628;BME280;10473;42.734;24.258;2023-05-25T00:23:01;91882.09;;;14.68;73.49
20628;BME280;10473;42.734;24.258;2023-05-25T00:25:28;91883.63;;;14.69;73.48
20628;BME280;10473;42.734;24.258;2023-05-25T00:27:56;91885.53;;;14.68;73.49
20628;BME280;10473;42.734;24.258;2023-05-25T00:30:24;91879.06;;;14.66;73.11
20628;BME280;10473;42.734;24.258;2023-05-25T00:32:52;91881.75;;;14.62;73.30
20628;BME280;10473;42.734;24.258;2023-05-25T00:35:20;91884.63;;;14.13;74.80
20628;BME280;10473;42.734;24.258;2023-05-25T00:37:48;91886.09;;;14.32;75.15
20628;BME280;10473;42.734;24.258;2023-05-25T00:40:19;91879.16;;;14.45;74.22
20628;BME280;10473;42.734;24.258;2023-05-25T00:42:47;91886.81;;;14.43;73.92
20628;BME280;10473;42.734;24.258;2023-05-25T00:45:15;91895.25;;;14.31;74.52
20628;BME280;10473;42.734;24.258;2023-05-25T00:47:44;91885.28;;;14.45;74.03
20628;BME280;10473;42.734;24.258;2023-05-25T00:50:13;91888.63;;;14.56;74.26
20628;BME280;10473;42.734;24.258;2023-05-25T00:52:42;91891.06;;;14.33;74.62
20628;BME280;10473;42.734;24.258;2023-05-25T00:55:11;91886.81;;;14.43;74.95
20628;BME280;10473;42.734;24.258;2023-05-25T00:57:46;91891.34;;;14.49;73.89
20628;BME280;10473;42.734;24.258;2023-05-25T01:00:15;91891.44;;;14.32;74.43
20628;BME280;10473;42.734;24.258;2023-05-25T01:02:44;91887.63;;;14.33;75.02
20628;BME280;10473;42.734;24.258;2023-05-25T01:05:15;91891.41;;;14.39;74.00
20628;BME280;10473;42.734;24.258;2023-05-25T01:07:44;91886.13;;;14.18;74.96
20628;BME280;10473;42.734;24.258;2023-05-25T01:10:13;91879.31;;;14.13;75.04
20628;BME280;10473;42.734;24.258;2023-05-25T01:12:43;91892.19;;;14.36;74.70
20628;BME280;10473;42.734;24.258;2023-05-25T01:15:13;91897.47;;;14.43;74.42
20628;BME280;10473;42.734;24.258;2023-05-25T01:17:41;91887.56;;;14.47;74.32
20628;BME280;10473;42.734;24.258;2023-05-25T01:20:10;91886.09;;;14.35;74.50
20628;BME280;10473;42.734;24.258;2023-05-25T01:22:44;91892.19;;;14.32;74.99
20628;BME280;10473;42.734;24.258;2023-05-25T01:25:18;91890.28;;;14.33;75.08
20628;BME280;10473;42.734;24.258;2023-05-25T01:27:50;91892.94;;;14.33;74.20
20628;BME280;10473;42.734;24.258;2023-05-25T01:30:23;91894.88;;;14.29;74.98
20628;BME280;10473;42.734;24.258;2023-05-25T01:32:52;91888.38;;;14.37;74.43
20628;BME280;10473;42.734;24.258;2023-05-25T01:35:21;91894.44;;;14.41;73.94
20628;BME280;10473;42.734;24.258;2023-05-25T01:37:52;91886.81;;;14.43;73.75
20628;BME280;10473;42.734;24.258;2023-05-25T01:40:21;91897.53;;;14.36;74.03
20628;BME280;10473;42.734;24.258;2023-05-25T01:42:49;91887.56;;;14.40;74.07
20628;BME280;10473;42.734;24.258;2023-05-25T01:45:17;91889.06;;;14.48;73.67
20628;BME280;10473;42.734;24.258;2023-05-25T01:47:52;91882.25;;;14.40;74.04
20628;BME280;10473;42.734;24.258;2023-05-25T01:50:30;91885.72;;;14.30;74.20
20628;BME280;10473;42.734;24.258;2023-05-25T01:53:03;91883.03;;;14.37;74.34
20628;BME280;10473;42.734;24.258;2023-05-25T01:55:36;91885.34;;;14.31;74.54
20628;BME280;10473;42.734;24.258;2023-05-25T01:58:06;91888.78;;;14.32;74.51
20628;BME280;10473;42.734;24.258;2023-05-25T02:00:35;91890.31;;;14.29;74.24
20628;BME280;10473;42.734;24.258;2023-05-25T02:03:05;91892.63;;;14.17;75.08
20628;BME280;10473;42.734;24.258;2023-05-25T02:05:35;91898.31;;;14.26;74.93
20628;BME280;10473;42.734;24.258;2023-05-25T02:08:07;91886.53;;;14.20;74.79
20628;BME280;10473;42.734;24.258;2023-05-25T02:10:35;91886.88;;;14.15;75.09
20628;BME280;10473;42.734;24.258;2023-05-25T02:13:04;91889.19;;;14.20;75.02
20628;BME280;10473;42.734;24.258;2023-05-25T02:15:32;91890.72;;;14.14;74.74
20628;BME280;10473;42.734;24.258;2023-05-25T02:18:01;91891.50;;;14.11;75.42
20628;BME280;10473;42.734;24.258;2023-05-25T02:20:31;91895.75;;;13.84;77.00
20628;BME280;10473;42.734;24.258;2023-05-25T02:22:58;91887.69;;;14.05;76.23
20628;BME280;10473;42.734;24.258;2023-05-25T02:25:28;91896.44;;;14.09;75.90
20628;BME280;10473;42.734;24.258;2023-05-25T02:27:55;91895.38;;;13.78;77.18
20628;BME280;10473;42.734;24.258;2023-05-25T02:30:23;91896.06;;;14.07;76.11
20628;BME280;10473;42.734;24.258;2023-05-25T02:32:54;91896.81;;;14.11;76.42
20628;BME280;10473;42.734;24.258;2023-05-25T02:35:22;91892.97;;;14.19;76.36
20628;BME280;10473;42.734;24.258;2023-05-25T02:37:50;91897.97;;;14.06;76.37
20628;BME280;10473;42.734;24.258;2023-05-25T02:40:19;91893.75;;;14.16;76.26
20628;BME280;10473;42.734;24.258;2023-05-25T02:42:48;91897.19;;;14.23;76.18
20628;BME280;10473;42.734;24.258;2023-05-25T02:45:16;91902.13;;;14.21;76.51
20628;BME280;10473;42.734;24.258;2023-05-25T02:47:44;91908.63;;;14.13;76.82
20628;BME280;10473;42.734;24.258;2023-05-25T02:50:12;91901.75;;;14.16;76.62
20628;BME280;10473;42.734;24.258;2023-05-25T02:52:44;91913.53;;;14.29;76.31
20628;BME280;10473;42.734;24.258;2023-05-25T02:55:12;91915.06;;;14.23;76.22
20628;BME280;10473;42.734;24.258;2023-05-25T02:57:42;91910.91;;;14.08;77.09
20628;BME280;10473;42.734;24.258;2023-05-25T03:00:15;91915.84;;;14.13;76.48
20628;BME280;10473;42.734;24.258;2023-05-25T03:02:43;91910.50;;;14.13;77.24
20628;BME280;10473;42.734;24.258;2023-05-25T03:05:12;91918.88;;;14.22;76.98
20628;BME280;10473;42.734;24.258;2023-05-25T03:07:39;91915.84;;;14.20;76.80
20628;BME280;10473;42.734;24.258;2023-05-25T03:10:08;91905.94;;;14.10;77.08
20628;BME280;10473;42.734;24.258;2023-05-25T03:12:36;91911.69;;;13.98;78.85
20628;BME280;10473;42.734;24.258;2023-05-25T03:15:05;91913.94;;;14.10;78.06
20628;BME280;10473;42.734;24.258;2023-05-25T03:17:34;91916.59;;;14.10;78.35
20628;BME280;10473;42.734;24.258;2023-05-25T03:20:02;91910.56;;;13.99;78.94
20628;BME280;10473;42.734;24.258;2023-05-25T03:22:33;91919.63;;;14.15;78.53
20628;BME280;10473;42.734;24.258;2023-05-25T03:25:01;91923.81;;;14.27;77.73
20628;BME280;10473;42.734;24.258;2023-05-25T03:27:29;91925.03;;;13.98;79.47
20628;BME280;10473;42.734;24.258;2023-05-25T03:29:57;91926.50;;;14.20;78.73
20628;BME280;10473;42.734;24.258;2023-05-25T03:32:25;91924.94;;;14.33;78.35
20628;BME280;10473;42.734;24.258;2023-05-25T03:34:54;91922.97;;;14.44;77.32
20628;BME280;10473;42.734;24.258;2023-05-25T03:37:22;91930.56;;;14.49;77.78
20628;BME280;10473;42.734;24.258;2023-05-25T03:39:50;91926.41;;;14.48;77.85
20628;BME280;10473;42.734;24.258;2023-05-25T03:42:17;91922.88;;;14.65;77.16
20628;BME280;10473;42.734;24.258;2023-05-25T03:44:45;91920.19;;;14.72;76.76
20628;BME280;10473;42.734;24.258;2023-05-25T03:47:13;91926.34;;;14.58;77.50
20628;BME280;10473;42.734;24.258;2023-05-25T03:49:42;91915.22;;;14.74;77.76
20628;BME280;10473;42.734;24.258;2023-05-25T03:52:11;91920.84;;;14.86;77.07
20628;BME280;10473;42.734;24.258;2023-05-25T03:54:39;91912.53;;;14.77;77.54
20628;BME280;10473;42.734;24.258;2023-05-25T03:57:07;91925.44;;;14.86;77.55
20628;BME280;10473;42.734;24.258;2023-05-25T03:59:35;91921.53;;;15.01;76.98
20628;BME280;10473;42.734;24.258;2023-05-25T04:02:03;91925.66;;;15.09;76.59
20628;BME280;10473;42.734;24.258;2023-05-25T04:04:31;91932.63;;;14.96;77.35
20628;BME280;10473;42.734;24.258;2023-05-25T04:06:58;91943.59;;;15.08;76.31
20628;BME280;10473;42.734;24.258;2023-05-25T04:09:28;91939.81;;;15.06;76.06
20628;BME280;10473;42.734;24.258;2023-05-25T04:11:55;91942.91;;;14.97;77.00
20628;BME280;10473;42.734;24.258;2023-05-25T04:14:23;91942.81;;;15.08;76.38
20628;BME280;10473;42.734;24.258;2023-05-25T04:16:52;91947.44;;;15.04;76.87
20628;BME280;10473;42.734;24.258;2023-05-25T04:19:20;91936.63;;;15.25;76.62
20628;BME280;10473;42.734;24.258;2023-05-25T04:21:47;91939.22;;;15.32;76.19
20628;BME280;10473;42.734;24.258;2023-05-25T04:24:15;91933.88;;;15.39;76.38
20628;BME280;10473;42.734;24.258;2023-05-25T04:26:45;91941.22;;;15.21;77.49
20628;BME280;10473;42.734;24.258;2023-05-25T04:29:13;91933.53;;;15.33;77.58
20628;BME280;10473;42.734;24.258;2023-05-25T04:32:16;91944.84;;;15.48;77.09
20628;BME280;10473;42.734;24.258;2023-05-25T04:35:11;91945.47;;;15.66;76.65
20628;BME280;10473;42.734;24.258;2023-05-25T04:37:43;91949.97;;;15.76;75.87
20628;BME280;10473;42.734;24.258;2023-05-25T04:40:14;91951.50;;;15.77;76.34
20628;BME280;10473;42.734;24.258;2023-05-25T04:42:43;91954.22;;;15.70;76.52
20628;BME280;10473;42.734;24.258;2023-05-25T04:45:13;91955.38;;;15.69;77.16
20628;BME280;10473;42.734;24.258;2023-05-25T04:47:46;91959.72;;;15.93;77.31
20628;BME280;10473;42.734;24.258;2023-05-25T04:50:16;91961.22;;;15.97;76.15
20628;BME280;10473;42.734;24.258;2023-05-25T04:52:44;91967.03;;;15.89;76.68
20628;BME280;10473;42.734;24.258;2023-05-25T04:55:12;91964.41;;;15.82;77.12
20628;BME280;10473;42.734;24.258;2023-05-25T04:57:43;91966.66;;;15.87;76.77
20628;BME280;10473;42.734;24.258;2023-05-25T05:00:13;91969.66;;;15.96;76.42
20628;BME280;10473;42.734;24.258;2023-05-25T05:02:41;91968.88;;;15.99;75.12
20628;BME280;10473;42.734;24.258;2023-05-25T05:05:09;91971.16;;;15.97;74.06
20628;BME280;10473;42.734;24.258;2023-05-25T05:07:37;91966.63;;;15.94;74.00
20628;BME280;10473;42.734;24.258;2023-05-25T05:10:06;91973.41;;;16.02;74.51
20628;BME280;10473;42.734;24.258;2023-05-25T05:12:36;91974.91;;;16.06;75.04
20628;BME280;10473;42.734;24.258;2023-05-25T05:15:06;91974.94;;;16.03;76.25
20628;BME280;10473;42.734;24.258;2023-05-25T05:17:34;91981.59;;;16.25;76.03
20628;BME280;10473;42.734;24.258;2023-05-25T05:20:03;91976.09;;;16.39;75.54
20628;BME280;10473;42.734;24.258;2023-05-25T05:22:33;91978.28;;;16.51;75.33
20628;BME280;10473;42.734;24.258;2023-05-25T05:25:02;91976.03;;;16.46;76.33
20628;BME280;10473;42.734;24.258;2023-05-25T05:27:30;91981.63;;;16.58;76.09
20628;BME280;10473;42.734;24.258;2023-05-25T05:30:03;91988.72;;;16.75;75.77
20628;BME280;10473;42.734;24.258;2023-05-25T05:32:32;91983.47;;;16.65;73.66
20628;BME280;10473;42.734;24.258;2023-05-25T05:35:00;91991.06;;;16.70;73.60
20628;BME280;10473;42.734;24.258;2023-05-25T05:37:41;91991.63;;;16.88;72.48
20628;BME280;10473;42.734;24.258;2023-05-25T05:40:10;91992.84;;;17.10;71.33
20628;BME280;10473;42.734;24.258;2023-05-25T05:42:40;91991.94;;;17.20;71.44
20628;BME280;10473;42.734;24.258;2023-05-25T05:45:09;91988.34;;;17.33;70.92
20628;BME280;10473;42.734;24.258;2023-05-25T05:47:39;91991.19;;;17.49;71.04
20628;BME280;10473;42.734;24.258;2023-05-25T05:50:07;91995.63;;;17.59;70.65
20628;BME280;10473;42.734;24.258;2023-05-25T05:52:37;91994.47;;;17.60;69.95
20628;BME280;10473;42.734;24.258;2023-05-25T05:55:05;91998.84;;;17.74;69.20
20628;BME280;10473;42.734;24.258;2023-05-25T05:57:33;91999.75;;;17.90;68.26
20628;BME280;10473;42.734;24.258;2023-05-25T06:00:01;92002.97;;;18.05;66.98
20628;BME280;10473;42.734;24.258;2023-05-25T06:02:42;91998.25;;;18.12;69.67
20628;BME280;10473;42.734;24.258;2023-05-25T06:05:14;92003.84;;;17.98;72.61
20628;BME280;10473;42.734;24.258;2023-05-25T06:07:42;92004.56;;;17.99;72.17
20628;BME280;10473;42.734;24.258;2023-05-25T06:10:11;92006.84;;;18.00;72.43
20628;BME280;10473;42.734;24.258;2023-05-25T06:12:39;92016.00;;;18.03;72.13
20628;BME280;10473;42.734;24.258;2023-05-25T06:15:07;92008.59;;;18.10;72.38
20628;BME280;10473;42.734;24.258;2023-05-25T06:17:37;92010.41;;;18.17;71.70
20628;BME280;10473;42.734;24.258;2023-05-25T06:20:07;92018.41;;;18.20;72.66
20628;BME280;10473;42.734;24.258;2023-05-25T06:22:36;92017.44;;;18.11;73.11
20628;BME280;10473;42.734;24.258;2023-05-25T06:25:04;92018.81;;;18.19;72.72
20628;BME280;10473;42.734;24.258;2023-05-25T06:27:32;92020.28;;;18.23;71.84
20628;BME280;10473;42.734;24.258;2023-05-25T06:30:01;92019.41;;;18.30;71.94
20628;BME280;10473;42.734;24.258;2023-05-25T06:32:29;92023.50;;;18.15;72.87
20628;BME280;10473;42.734;24.258;2023-05-25T06:34:56;92019.69;;;18.12;72.46
20628;BME280;10473;42.734;24.258;2023-05-25T06:37:26;92024.06;;;18.26;72.38
20628;BME280;10473;42.734;24.258;2023-05-25T06:40:01;92023.59;;;18.31;72.00
20628;BME280;10473;42.734;24.258;2023-05-25T06:42:30;92030.78;;;18.14;67.81
20628;BME280;10473;42.734;24.258;2023-05-25T06:45:01;92029.06;;;18.24;68.31
20628;BME280;10473;42.734;24.258;2023-05-25T06:47:31;92038.19;;;18.30;68.55
20628;BME280;10473;42.734;24.258;2023-05-25T06:49:59;92043.06;;;18.12;67.80
20628;BME280;10473;42.734;24.258;2023-05-25T06:52:28;92045.03;;;18.08;64.30
20628;BME280;10473;42.734;24.258;2023-05-25T06:54:56;92032.09;;;18.03;62.19
20628;BME280;10473;42.734;24.258;2023-05-25T06:57:24;92015.53;;;17.85;61.45
20628;BME280;10473;42.734;24.258;2023-05-25T06:59:52;92022.19;;;17.77;62.16
20628;BME280;10473;42.734;24.258;2023-05-25T07:02:20;92024.34;;;17.59;62.58
20628;BME280;10473;42.734;24.258;2023-05-25T07:04:47;92021.91;;;17.41;62.85
20628;BME280;10473;42.734;24.258;2023-05-25T07:07:15;92036.22;;;17.28;62.04
20628;BME280;10473;42.734;24.258;2023-05-25T07:09:45;92043.66;;;17.17;65.23
20628;BME280;10473;42.734;24.258;2023-05-25T07:12:14;92046.56;;;16.96;65.92
20628;BME280;10473;42.734;24.258;2023-05-25T07:14:42;92044.06;;;16.82;67.00
20628;BME280;10473;42.734;24.258;2023-05-25T07:17:13;92044.53;;;16.73;68.48
20628;BME280;10473;42.734;24.258;2023-05-25T07:19:41;92050.88;;;16.53;68.63
20628;BME280;10473;42.734;24.258;2023-05-25T07:22:09;92040.66;;;16.37;69.90
20628;BME280;10473;42.734;24.258;2023-05-25T07:24:36;92040.06;;;16.23;70.36
20628;BME280;10473;42.734;24.258;2023-05-25T07:27:06;92042.03;;;16.12;70.73
20628;BME280;10473;42.734;24.258;2023-05-25T07:29:34;92044.81;;;15.98;71.22
20628;BME280;10473;42.734;24.258;2023-05-25T07:32:02;92048.34;;;15.88;71.33
20628;BME280;10473;42.734;24.258;2023-05-25T07:34:29;92040.75;;;15.83;72.63
20628;BME280;10473;42.734;24.258;2023-05-25T07:36:57;92033.16;;;15.78;73.87
20628;BME280;10473;42.734;24.258;2023-05-25T07:39:25;92042.75;;;15.72;74.52
20628;BME280;10473;42.734;24.258;2023-05-25T07:41:53;92049.41;;;15.46;76.32
20628;BME280;10473;42.734;24.258;2023-05-25T07:44:22;92049.41;;;15.50;76.02
20628;BME280;10473;42.734;24.258;2023-05-25T07:46:50;92056.16;;;15.65;75.56
20628;BME280;10473;42.734;24.258;2023-05-25T07:49:18;92047.34;;;15.68;75.81
20628;BME280;10473;42.734;24.258;2023-05-25T07:51:46;92049.19;;;15.81;77.69
20628;BME280;10473;42.734;24.258;2023-05-25T07:54:13;92051.66;;;16.06;78.18
20628;BME280;10473;42.734;24.258;2023-05-25T07:56:41;92061.84;;;16.21;78.06
20628;BME280;10473;42.734;24.258;2023-05-25T07:59:09;92055.75;;;16.17;77.37
20628;BME280;10473;42.734;24.258;2023-05-25T08:01:38;92065.34;;;16.59;79.42
20628;BME280;10473;42.734;24.258;2023-05-25T08:04:06;92056.59;;;16.88;79.86
20628;BME280;10473;42.734;24.258;2023-05-25T08:06:34;92051.75;;;17.10;76.50
20628;BME280;10473;42.734;24.258;2023-05-25T08:09:02;92065.91;;;17.44;74.31
20628;BME280;10473;42.734;24.258;2023-05-25T08:11:31;92066.31;;;17.95;71.71
20628;BME280;10473;42.734;24.258;2023-05-25T08:13:59;92049.13;;;18.42;69.96
20628;BME280;10473;42.734;24.258;2023-05-25T08:16:27;92053.53;;;18.95;67.60
20628;BME280;10473;42.734;24.258;2023-05-25T08:18:56;92049.69;;;19.35;66.88
20628;BME280;10473;42.734;24.258;2023-05-25T08:21:26;92041.69;;;19.67;64.85
20628;BME280;10473;42.734;24.258;2023-05-25T08:23:54;92046.84;;;20.13;62.92
20628;BME280;10473;42.734;24.258;2023-05-25T08:26:22;92033.34;;;20.45;62.00
20628;BME280;10473;42.734;24.258;2023-05-25T08:28:50;92024.88;;;20.75;62.08
20628;BME280;10473;42.734;24.258;2023-05-25T08:31:17;92022.09;;;20.94;61.80
20628;BME280;10473;42.734;24.258;2023-05-25T08:33:45;92020.47;;;21.25;61.50
20628;BME280;10473;42.734;24.258;2023-05-25T08:36:15;92019.75;;;21.50;63.83
20628;BME280;10473;42.734;24.258;2023-05-25T08:38:43;92025.06;;;21.66;59.97
20628;BME280;10473;42.734;24.258;2023-05-25T08:41:11;92021.50;;;21.69;58.44
20628;BME280;10473;42.734;24.258;2023-05-25T08:43:40;92017.13;;;21.87;58.92
20628;BME280;10473;42.734;24.258;2023-05-25T08:46:08;92016.03;;;22.10;60.37
20628;BME280;10473;42.734;24.258;2023-05-25T08:48:37;92016.16;;;21.94;59.29
20628;BME280;10473;42.734;24.258;2023-05-25T08:51:07;92015.47;;;22.15;59.11
20628;BME280;10473;42.734;24.258;2023-05-25T08:53:37;92027.13;;;22.12;57.70
20628;BME280;10473;42.734;24.258;2023-05-25T08:56:09;92017.78;;;22.04;57.48
20628;BME280;10473;42.734;24.258;2023-05-25T08:58:41;92025.53;;;22.02;58.45
20628;BME280;10473;42.734;24.258;2023-05-25T09:01:14;92028.75;;;22.22;56.25
20628;BME280;10473;42.734;24.258;2023-05-25T09:03:43;92018.44;;;22.42;56.33
20628;BME280;10473;42.734;24.258;2023-05-25T09:06:12;92021.91;;;22.55;55.56
20628;BME280;10473;42.734;24.258;2023-05-25T09:08:43;92017.63;;;22.45;53.67
20628;BME280;10473;42.734;24.258;2023-05-25T09:11:11;92027.75;;;22.41;55.24
20628;BME280;10473;42.734;24.258;2023-05-25T09:13:41;92033.59;;;22.52;52.32
20628;BME280;10473;42.734;24.258;2023-05-25T09:16:10;92024.88;;;22.10;54.38
20628;BME280;10473;42.734;24.258;2023-05-25T09:18:38;92027.00;;;22.28;54.73
20628;BME280;10473;42.734;24.258;2023-05-25T09:21:06;92011.44;;;22.57;59.29
20628;BME280;10473;42.734;24.258;2023-05-25T09:23:34;92021.06;;;22.58;56.32
20628;BME280;10473;42.734;24.258;2023-05-25T09:26:04;92010.47;;;22.51;57.48
20628;BME280;10473;42.734;24.258;2023-05-25T09:28:32;92018.66;;;22.94;55.89
20628;BME280;10473;42.734;24.258;2023-05-25T09:31:00;92006.03;;;23.12;53.23
20628;BME280;10473;42.734;24.258;2023-05-25T09:33:28;92018.00;;;23.24;54.93
20628;BME280;10473;42.734;24.258;2023-05-25T09:35:57;92016.59;;;23.41;52.60
20628;BME280;10473;42.734;24.258;2023-05-25T09:38:24;92003.63;;;23.57;52.35
20628;BME280;10473;42.734;24.258;2023-05-25T09:40:52;92006.28;;;23.48;52.56
20628;BME280;10473;42.734;24.258;2023-05-25T09:43:21;91997.69;;;23.71;53.79
20628;BME280;10473;42.734;24.258;2023-05-25T09:45:51;91996.72;;;23.87;51.95
20628;BME280;10473;42.734;24.258;2023-05-25T09:48:20;92000.09;;;24.00;48.62
20628;BME280;10473;42.734;24.258;2023-05-25T09:50:49;92003.72;;;23.97;49.70
20628;BME280;10473;42.734;24.258;2023-05-25T09:53:18;92002.53;;;24.07;48.19
20628;BME280;10473;42.734;24.258;2023-05-25T09:55:47;91999.22;;;24.03;48.58
20628;BME280;10473;42.734;24.258;2023-05-25T09:58:15;91996.56;;;24.21;48.72
20628;BME280;10473;42.734;24.258;2023-05-25T10:00:44;92002.25;;;24.14;45.66
20628;BME280;10473;42.734;24.258;2023-05-25T10:03:12;92003.84;;;24.42;48.01
20628;BME280;10473;42.734;24.258;2023-05-25T10:05:40;91990.00;;;24.49;47.24
20628;BME280;10473;42.734;24.258;2023-05-25T10:08:09;91990.22;;;24.81;46.09
20628;BME280;10473;42.734;24.258;2023-05-25T10:10:38;91980.75;;;24.95;44.83
20628;BME280;10473;42.734;24.258;2023-05-25T10:13:07;91986.16;;;25.13;42.79
20628;BME280;10473;42.734;24.258;2023-05-25T10:15:36;91984.34;;;24.92;42.77
20628;BME280;10473;42.734;24.258;2023-05-25T10:18:08;91986.47;;;24.97;44.25
20628;BME280;10473;42.734;24.258;2023-05-25T10:20:38;91983.84;;;24.48;42.38
20628;BME280;10473;42.734;24.258;2023-05-25T10:23:10;91982.63;;;24.40;43.35
20628;BME280;10473;42.734;24.258;2023-05-25T10:25:43;91979.41;;;24.24;43.49
20628;BME280;10473;42.734;24.258;2023-05-25T10:28:16;91971.69;;;24.04;43.66
20628;BME280;10473;42.734;24.258;2023-05-25T10:30:46;91973.06;;;24.09;44.78
20628;BME280;10473;42.734;24.258;2023-05-25T10:33:16;91976.31;;;23.95;42.85
20628;BME280;10473;42.734;24.258;2023-05-25T10:35:45;91975.47;;;23.46;41.11
20628;BME280;10473;42.734;24.258;2023-05-25T10:38:13;91972.41;;;23.35;42.23
20628;BME280;10473;42.734;24.258;2023-05-25T10:40:43;91976.13;;;23.07;42.15
20628;BME280;10473;42.734;24.258;2023-05-25T10:43:13;91983.53;;;22.94;42.08
20628;BME280;10473;42.734;24.258;2023-05-25T10:45:43;91983.38;;;22.76;43.95
20628;BME280;10473;42.734;24.258;2023-05-25T10:48:11;91979.31;;;22.71;45.18
20628;BME280;10473;42.734;24.258;2023-05-25T10:50:40;91966.16;;;22.82;43.40
20628;BME280;10473;42.734;24.258;2023-05-25T10:53:13;91959.69;;;23.01;43.27
20628;BME280;10473;42.734;24.258;2023-05-25T10:55:42;91970.31;;;22.96;42.20
20628;BME280;10473;42.734;24.258;2023-05-25T10:58:12;91957.50;;;23.09;42.47
20628;BME280;10473;42.734;24.258;2023-05-25T11:00:56;91954.88;;;23.18;42.27
20628;BME280;10473;42.734;24.258;2023-05-25T11:03:55;91957.06;;;23.32;42.26
20628;BME280;10473;42.734;24.258;2023-05-25T11:07:03;91958.16;;;23.34;43.17
20628;BME280;10473;42.734;24.258;2023-05-25T11:09:33;91950.28;;;23.58;43.63
20628;BME280;10473;42.734;24.258;2023-05-25T11:12:17;91942.09;;;23.79;43.85
20628;BME280;10473;42.734;24.258;2023-05-25T11:15:13;91939.75;;;23.90;43.95
20628;BME280;10473;42.734;24.258;2023-05-25T11:17:45;91937.25;;;23.96;41.44
20628;BME280;10473;42.734;24.258;2023-05-25T11:20:22;91951.44;;;24.27;42.13
20628;BME280;10473;42.734;24.258;2023-05-25T11:22:53;91939.44;;;24.55;41.52
20628;BME280;10473;42.734;24.258;2023-05-25T11:25:37;91936.25;;;24.56;39.62
20628;BME280;10473;42.734;24.258;2023-05-25T11:28:07;91929.84;;;24.81;41.72
20628;BME280;10473;42.734;24.258;2023-05-25T11:30:39;91943.06;;;24.79;42.90
20628;BME280;10473;42.734;24.258;2023-05-25T11:33:09;91935.88;;;24.85;41.77
20628;BME280;10473;42.734;24.258;2023-05-25T11:35:37;91932.06;;;25.09;39.75
20628;BME280;10473;42.734;24.258;2023-05-25T11:38:06;91932.53;;;25.26;37.71
20628;BME280;10473;42.734;24.258;2023-05-25T11:40:34;91933.38;;;25.23;38.79
20628;BME280;10473;42.734;24.258;2023-05-25T11:43:03;91928.88;;;25.20;37.67
20628;BME280;10473;42.734;24.258;2023-05-25T11:45:32;91924.97;;;25.12;38.45
20628;BME280;10473;42.734;24.258;2023-05-25T11:48:03;91939.75;;;25.02;40.19
20628;BME280;10473;42.734;24.258;2023-05-25T11:50:31;91939.47;;;24.73;39.87
20628;BME280;10473;42.734;24.258;2023-05-25T11:53:02;91938.53;;;24.58;40.02
20628;BME280;10473;42.734;24.258;2023-05-25T11:55:32;91945.91;;;24.39;42.79
20628;BME280;10473;42.734;24.258;2023-05-25T11:58:00;91953.56;;;23.53;45.29
20628;BME280;10473;42.734;24.258;2023-05-25T12:00:28;91962.75;;;22.69;47.26
20628;BME280;10473;42.734;24.258;2023-05-25T12:02:56;91975.00;;;21.65;49.58
20628;BME280;10473;42.734;24.258;2023-05-25T12:05:24;92000.69;;;20.87;51.13
20628;BME280;10473;42.734;24.258;2023-05-25T12:07:51;91990.81;;;20.24;53.41
20628;BME280;10473;42.734;24.258;2023-05-25T12:10:19;92011.97;;;19.74;55.85
20628;BME280;10473;42.734;24.258;2023-05-25T12:12:50;92002.41;;;19.18;56.49
20628;BME280;10473;42.734;24.258;2023-05-25T12:15:23;91997.88;;;18.76;58.01
20628;BME280;10473;42.734;24.258;2023-05-25T12:17:52;91996.75;;;18.54;58.81
20628;BME280;10473;42.734;24.258;2023-05-25T12:20:20;91999.00;;;18.59;58.96
20628;BME280;10473;42.734;24.258;2023-05-25T12:22:48;92002.53;;;18.29;60.27
20628;BME280;10473;42.734;24.258;2023-05-25T12:25:18;92008.03;;;18.22;60.18
20628;BME280;10473;42.734;24.258;2023-05-25T12:27:48;92011.34;;;18.30;60.26
20628;BME280;10473;42.734;24.258;2023-05-25T12:30:16;92008.03;;;18.22;60.70
20628;BME280;10473;42.734;24.258;2023-05-25T12:32:53;92013.56;;;18.12;60.61
20628;BME280;10473;42.734;24.258;2023-05-25T12:35:21;92010.88;;;18.12;61.26
20628;BME280;10473;42.734;24.258;2023-05-25T12:37:49;92005.19;;;18.10;63.63
20628;BME280;10473;42.734;24.258;2023-05-25T12:40:18;92000.72;;;18.23;63.40
20628;BME280;10473;42.734;24.258;2023-05-25T12:42:55;92007.63;;;18.47;64.29
20628;BME280;10473;42.734;24.258;2023-05-25T12:45:23;92011.84;;;18.67;64.01
20628;BME280;10473;42.734;24.258;2023-05-25T12:47:51;92010.78;;;18.42;64.34
20628;BME280;10473;42.734;24.258;2023-05-25T12:50:19;92011.72;;;18.55;62.97
20628;BME280;10473;42.734;24.258;2023-05-25T12:52:47;92021.34;;;18.72;63.72
20628;BME280;10473;42.734;24.258;2023-05-25T12:55:19;92011.84;;;18.87;62.86
20628;BME280;10473;42.734;24.258;2023-05-25T12:57:47;92009.38;;;18.96;64.94
20628;BME280;10473;42.734;24.258;2023-05-25T13:00:20;92018.06;;;19.03;63.86
20628;BME280;10473;42.734;24.258;2023-05-25T13:02:58;92018.66;;;19.11;62.74